Time;durP1;ratioP1;P1;durP2;ratioP2;P2;SDS_P1;SDS_P2;PMS_P1;PMS_P2;Temp;Humidity;BMP_temperature;BMP_pressure;BME280_temperature;BME280_humidity;BME280_pressure;Samples;Min_cycle;Max_cycle;Signal;HPM_P1;HPM_P2
2024/03/19 00:00:38;;;;;;;7.55;4.57;;;;;;;5.17;55.29;100436.53;5133567;27;20078;-51
2024/03/19 00:03:06;;;;;;;8.13;4.70;;;;;;;5.15;55.95;100439.22;5133700;27;20043;-50
2024/03/19 00:05:34;;;;;;;9.23;4.85;;;;;;;5.27;55.56;100432.63;5133709;27;20054;-50
2024/03/19 00:08:01;;;;;;;8.68;4.75;;;;;;;5.42;55.46;100437.38;5133566;27;20541;-49
2024/03/19 00:10:28;;;;;;;9.20;5.28;;;;;;;5.38;55.09;100441.03;5133565;27;20058;-50
2024/03/19 00:12:56;;;;;;;7.63;4.47;;;;;;;5.39;54.87;100437.47;5133459;27;20165;-48
2024/03/19 00:15:23;;;;;;;8.57;4.97;;;;;;;5.55;54.57;100436.94;5133237;27;20051;-49
2024/03/19 00:17:53;;;;;;;8.52;4.82;;;;;;;5.53;54.86;100437.00;5133416;27;20039;-53
2024/03/19 00:20:21;;;;;;;8.45;4.85;;;;;;;5.61;54.46;100432.28;5133506;27;20051;-50
2024/03/19 00:22:48;;;;;;;9.48;5.40;;;;;;;5.81;54.31;100433.34;5116351;27;20535;-51
2024/03/19 00:25:15;;;;;;;8.32;4.90;;;;;;;5.90;54.62;100438.28;5133341;27;20050;-51
2024/03/19 00:27:43;;;;;;;9.32;4.45;;;;;;;5.87;54.03;100439.22;5133217;27;20153;-52
2024/03/19 00:30:11;;;;;;;8.38;4.72;;;;;;;5.89;54.70;100440.06;5133820;27;20053;-49
2024/03/19 00:32:38;;;;;;;8.65;4.53;;;;;;;5.95;53.95;100436.34;5134273;27;20047;-50
2024/03/19 00:35:09;;;;;;;10.23;5.60;;;;;;;6.02;53.93;100440.47;5133258;27;20070;-51
2024/03/19 00:37:37;;;;;;;8.02;4.70;;;;;;;5.83;53.31;100436.78;5133323;27;20052;-50
2024/03/19 00:40:10;;;;;;;9.05;5.00;;;;;;;5.69;53.68;100434.63;5133080;27;20427;-52
2024/03/19 00:42:39;;;;;;;8.13;4.50;;;;;;;5.74;53.71;100438.84;5133204;27;20495;-49
2024/03/19 00:45:08;;;;;;;9.73;4.57;;;;;;;5.58;53.78;100437.66;5132974;27;20483;-51
2024/03/19 00:47:35;;;;;;;10.07;4.60;;;;;;;5.64;54.04;100442.75;5133158;27;20054;-50
2024/03/19 00:50:03;;;;;;;9.07;4.90;;;;;;;5.40;54.25;100438.34;5131596;27;20127;-50
2024/03/19 00:52:32;;;;;;;8.45;4.93;;;;;;;5.47;54.88;100439.84;5115875;27;20416;-50
2024/03/19 00:54:59;;;;;;;8.48;4.65;;;;;;;5.55;54.24;100432.50;5132536;27;20128;-49
2024/03/19 00:57:27;;;;;;;8.00;4.75;;;;;;;5.62;53.64;100438.44;5133128;27;20468;-50
2024/03/19 00:59:54;;;;;;;7.45;4.60;;;;;;;5.24;54.33;100442.47;5133438;27;20092;-48
2024/03/19 01:02:22;;;;;;;7.28;4.28;;;;;;;5.19;54.76;100445.25;5132713;27;20055;-50
2024/03/19 01:04:49;;;;;;;8.27;4.70;;;;;;;5.34;54.63;100442.09;5132185;27;20049;-48
2024/03/19 01:07:18;;;;;;;9.63;4.88;;;;;;;5.42;54.61;100439.16;5132328;27;20039;-48
2024/03/19 01:09:47;;;;;;;9.10;4.82;;;;;;;5.28;54.21;100438.78;5132758;27;20039;-51
2024/03/19 01:12:14;;;;;;;8.18;4.43;;;;;;;5.36;54.31;100431.44;5132614;27;20042;-48
2024/03/19 01:14:41;;;;;;;8.23;4.72;;;;;;;5.26;54.23;100440.63;5132059;27;20512;-47
2024/03/19 01:17:09;;;;;;;8.13;4.80;;;;;;;5.37;54.19;100443.75;5132096;27;20043;-48
2024/03/19 01:19:36;;;;;;;6.63;4.00;;;;;;;5.20;54.38;100441.69;5132287;27;20123;-48
2024/03/19 01:22:04;;;;;;;9.32;4.75;;;;;;;5.38;54.12;100443.69;5132021;27;20094;-50
2024/03/19 01:24:30;;;;;;;7.53;4.40;;;;;;;5.39;54.01;100444.56;5132402;27;20051;-48
2024/03/19 01:26:59;;;;;;;6.95;4.53;;;;;;;5.16;54.37;100448.88;5132150;27;20107;-48
2024/03/19 01:29:27;;;;;;;6.50;4.20;;;;;;;5.01;54.46;100446.75;5132024;27;20054;-48
2024/03/19 01:31:54;;;;;;;6.72;4.28;;;;;;;5.28;54.69;100442.28;5131805;27;20043;-51
2024/03/19 01:34:22;;;;;;;7.80;4.65;;;;;;;5.52;54.60;100448.50;5131751;27;20047;-51
2024/03/19 01:36:49;;;;;;;7.40;4.32;;;;;;;5.33;53.55;100447.44;5131996;27;20145;-51
2024/03/19 01:39:16;;;;;;;7.93;4.20;;;;;;;5.44;54.03;100447.91;5132130;27;20059;-52
2024/03/19 01:41:43;;;;;;;7.18;4.05;;;;;;;5.39;53.88;100444.56;5131892;27;20499;-47
2024/03/19 01:44:16;;;;;;;8.82;4.60;;;;;;;5.36;54.05;100447.31;5131720;27;20091;-49
2024/03/19 01:46:45;;;;;;;7.85;4.22;;;;;;;5.49;53.71;100442.44;5131748;27;20561;-49
2024/03/19 01:49:12;;;;;;;7.55;4.60;;;;;;;5.18;53.87;100435.59;5131549;27;20096;-49
2024/03/19 01:51:42;;;;;;;7.68;4.20;;;;;;;5.40;53.92;100443.63;5131799;27;20043;-51
2024/03/19 01:54:10;;;;;;;8.15;4.20;;;;;;;5.43;54.10;100443.53;5131663;27;20050;-49
2024/03/19 01:56:38;;;;;;;6.68;3.92;;;;;;;5.51;53.11;100438.84;5131472;27;20040;-49
2024/03/19 01:59:05;;;;;;;7.38;4.13;;;;;;;5.37;52.68;100439.31;5131509;27;20100;-52
2024/03/19 02:01:34;;;;;;;7.65;4.00;;;;;;;5.15;53.22;100443.66;5131063;27;20058;-51
2024/03/19 02:04:01;;;;;;;6.47;4.00;;;;;;;5.15;53.33;100444.50;5131153;27;20043;-48
2024/03/19 02:06:29;;;;;;;5.95;3.65;;;;;;;5.17;53.51;100437.38;5131447;27;20139;-49
2024/03/19 02:09:04;;;;;;;7.63;4.13;;;;;;;5.23;53.16;100436.31;5131437;27;20047;-49
2024/03/19 02:11:31;;;;;;;6.50;3.97;;;;;;;5.26;52.77;100441.47;5131340;27;20043;-48
2024/03/19 02:13:59;;;;;;;7.28;4.40;;;;;;;5.32;53.08;100440.41;5131078;27;20566;-49
2024/03/19 02:16:26;;;;;;;6.72;3.88;;;;;;;5.33;53.30;100437.72;5131078;27;20062;-51
2024/03/19 02:19:01;;;;;;;6.70;4.03;;;;;;;5.57;53.15;100441.25;5131110;27;20139;-49
2024/03/19 02:21:30;;;;;;;6.70;4.00;;;;;;;5.47;53.05;100440.72;5131266;27;20043;-50
2024/03/19 02:23:59;;;;;;;9.38;3.78;;;;;;;5.57;52.95;100435.09;5131100;27;20043;-50
2024/03/19 02:26:29;;;;;;;6.05;3.67;;;;;;;5.45;52.84;100437.25;5130836;27;20074;-49
2024/03/19 02:28:57;;;;;;;7.45;4.03;;;;;;;5.42;53.10;100434.75;5131147;27;20411;-52
2024/03/19 02:31:27;;;;;;;6.57;4.00;;;;;;;5.46;53.44;100431.06;5132027;27;20047;-50
2024/03/19 02:33:55;;;;;;;6.80;4.00;;;;;;;5.43;52.86;100432.97;5131556;27;20039;-50
2024/03/19 02:36:22;;;;;;;7.53;4.00;;;;;;;5.39;53.09;100439.25;5130906;27;20055;-50
2024/03/19 02:38:50;;;;;;;6.28;3.72;;;;;;;5.52;52.82;100447.63;5131132;27;20043;-50
2024/03/19 02:41:19;;;;;;;6.90;4.03;;;;;;;5.32;53.55;100448.34;5130714;27;20368;-50
2024/03/19 02:43:46;;;;;;;6.53;3.88;;;;;;;5.27;53.66;100447.63;5130770;27;20047;-51
2024/03/19 02:46:13;;;;;;;7.88;4.30;;;;;;;5.47;53.59;100447.78;5130906;27;20176;-48
2024/03/19 02:48:41;;;;;;;7.47;4.22;;;;;;;5.49;53.59;100456.53;5130604;27;20456;-50
2024/03/19 02:51:08;;;;;;;6.40;3.88;;;;;;;5.58;52.88;100460.63;5130588;27;20047;-49
2024/03/19 02:53:35;;;;;;;6.13;3.95;;;;;;;5.66;52.90;100456.78;5130613;27;20047;-46
2024/03/19 02:56:03;;;;;;;6.53;4.03;;;;;;;5.46;52.87;100456.66;5130594;27;20134;-52
2024/03/19 02:58:31;;;;;;;6.30;3.90;;;;;;;5.28;53.39;100460.81;5130893;27;20049;-50
2024/03/19 03:00:59;;;;;;;6.53;3.60;;;;;;;5.34;53.13;100454.44;5130779;27;20068;-50
2024/03/19 03:03:26;;;;;;;7.18;3.97;;;;;;;5.52;53.31;100459.09;5130811;27;20417;-53
2024/03/19 03:05:53;;;;;;;5.40;3.40;;;;;;;5.45;53.12;100462.84;5130539;27;20043;-51
2024/03/19 03:08:21;;;;;;;6.18;3.67;;;;;;;5.36;53.13;100458.75;5130348;28;20494;-54
2024/03/19 03:10:48;;;;;;;6.25;3.70;;;;;;;5.35;53.13;100469.41;5130327;27;20043;-50
2024/03/19 03:13:15;;;;;;;7.25;4.03;;;;;;;5.25;53.28;100466.22;5131866;27;20051;-48
2024/03/19 03:15:44;;;;;;;6.40;4.10;;;;;;;5.37;53.25;100464.91;5134786;27;20100;-49
2024/03/19 03:18:11;;;;;;;6.28;3.63;;;;;;;5.46;52.79;100469.88;5134790;27;20051;-49
2024/03/19 03:20:39;;;;;;;8.80;4.00;;;;;;;5.35;52.77;100467.63;5117678;27;20047;-50
2024/03/19 03:23:07;;;;;;;6.63;4.10;;;;;;;5.11;52.96;100471.97;5134379;27;20126;-49
2024/03/19 03:25:35;;;;;;;6.38;3.83;;;;;;;5.06;52.98;100471.25;5134414;27;20047;-50
2024/03/19 03:28:03;;;;;;;6.93;4.00;;;;;;;4.94;53.34;100470.81;5134391;27;20502;-50
2024/03/19 03:30:30;;;;;;;7.35;4.07;;;;;;;5.08;53.38;100472.06;5134685;27;20043;-51
2024/03/19 03:32:59;;;;;;;5.75;3.85;;;;;;;5.03;53.81;100476.66;5134480;27;20043;-49
2024/03/19 03:35:27;;;;;;;6.75;3.83;;;;;;;5.14;54.17;100479.81;5134098;27;20372;-48
2024/03/19 03:37:54;;;;;;;7.13;3.78;;;;;;;5.12;53.88;100480.78;5135342;27;20125;-48
2024/03/19 03:40:23;;;;;;;6.10;3.40;;;;;;;5.06;53.92;100481.84;5134872;27;20043;-52
2024/03/19 03:42:51;;;;;;;7.43;4.28;;;;;;;4.88;54.25;100479.81;5134387;27;20050;-53
2024/03/19 03:45:20;;;;;;;7.15;3.88;;;;;;;4.93;54.49;100484.97;5134071;27;20136;-50
2024/03/19 03:47:47;;;;;;;8.65;4.38;;;;;;;5.03;54.66;100483.75;5134247;27;20050;-51
2024/03/19 03:50:17;;;;;;;5.90;3.58;;;;;;;4.95;54.18;100491.06;5133951;27;20130;-48
2024/03/19 03:52:45;;;;;;;7.03;3.75;;;;;;;4.87;54.69;100486.03;5134232;27;20470;-51
2024/03/19 03:55:13;;;;;;;6.93;3.95;;;;;;;5.07;53.99;100490.63;5133782;27;20415;-48
2024/03/19 03:57:41;;;;;;;8.38;3.55;;;;;;;5.08;53.57;100495.00;5134007;27;20476;-50
2024/03/19 04:00:11;;;;;;;6.68;3.75;;;;;;;5.22;53.70;100497.19;5133892;27;20071;-49
2024/03/19 04:02:39;;;;;;;5.78;3.75;;;;;;;5.37;53.55;100504.59;5133740;27;20051;-48
2024/03/19 04:05:08;;;;;;;6.78;3.78;;;;;;;5.55;53.57;100505.72;5133449;27;20049;-49
2024/03/19 04:07:39;;;;;;;7.07;4.32;;;;;;;5.62;53.92;100502.81;5116555;27;20472;-51
2024/03/19 04:10:07;;;;;;;6.75;3.75;;;;;;;5.60;53.77;100504.66;5134020;27;20426;-50
2024/03/19 04:12:35;;;;;;;7.80;4.28;;;;;;;5.45;53.49;100505.19;5133563;27;20040;-49
2024/03/19 04:15:02;;;;;;;7.75;4.35;;;;;;;5.25;53.72;100502.38;5133449;27;20130;-50
2024/03/19 04:17:29;;;;;;;9.50;4.50;;;;;;;5.19;54.13;100506.06;5133606;27;20463;-47
2024/03/19 04:19:56;;;;;;;7.28;4.15;;;;;;;5.44;54.10;100512.25;5133424;27;20130;-47
2024/03/19 04:22:23;;;;;;;7.18;4.35;;;;;;;5.26;54.59;100512.03;5133485;27;20457;-47
2024/03/19 04:24:52;;;;;;;8.05;4.38;;;;;;;5.51;54.75;100518.22;5133096;27;20040;-47
2024/03/19 04:27:19;;;;;;;7.53;4.32;;;;;;;5.15;54.89;100521.19;5133196;27;20047;-50
2024/03/19 04:29:48;;;;;;;7.28;4.53;;;;;;;5.22;55.86;100516.56;5133264;27;20047;-49
2024/03/19 04:32:15;;;;;;;9.73;5.15;;;;;;;5.19;55.88;100519.31;5132975;27;20047;-49
2024/03/19 04:34:43;;;;;;;7.80;4.80;;;;;;;5.33;55.79;100516.22;5133232;27;20058;-48
2024/03/19 04:37:10;;;;;;;9.40;4.60;;;;;;;5.35;55.64;100517.00;5133159;27;20055;-50
2024/03/19 04:39:37;;;;;;;10.07;4.57;;;;;;;5.41;54.93;100516.81;5133322;27;20043;-49
2024/03/19 04:42:06;;;;;;;8.98;4.68;;;;;;;5.07;55.19;100519.72;5132981;27;20047;-49
2024/03/19 04:44:35;;;;;;;8.07;4.70;;;;;;;5.27;55.67;100521.69;5132884;27;20058;-51
2024/03/19 04:47:02;;;;;;;9.68;4.90;;;;;;;4.83;55.97;100537.25;5132792;27;20043;-50
2024/03/19 04:49:29;;;;;;;9.05;4.40;;;;;;;4.91;56.50;100529.94;5132673;27;20475;-50
2024/03/19 04:51:57;;;;;;;10.30;5.05;;;;;;;5.07;56.53;100530.31;5132691;27;20134;-51
2024/03/19 04:54:24;;;;;;;7.13;4.30;;;;;;;5.20;56.39;100531.59;5132509;27;20130;-50
2024/03/19 04:56:51;;;;;;;8.65;4.90;;;;;;;5.13;55.86;100541.53;5132534;27;20059;-51
2024/03/19 04:59:20;;;;;;;7.88;4.75;;;;;;;5.27;56.24;100541.06;5132564;27;20039;-51
2024/03/19 05:01:47;;;;;;;8.35;4.75;;;;;;;5.32;55.97;100546.22;5132350;27;20077;-50
2024/03/19 05:04:15;;;;;;;9.60;4.65;;;;;;;5.21;56.29;100548.34;5132690;27;20127;-47
2024/03/19 05:06:41;;;;;;;8.13;4.28;;;;;;;5.22;56.70;100555.38;5133201;27;20112;-52
2024/03/19 05:09:09;;;;;;;7.93;5.10;;;;;;;5.38;56.92;100557.44;5132769;27;20134;-52
2024/03/19 05:11:36;;;;;;;12.82;6.00;;;;;;;5.49;57.88;100561.50;5132595;27;20477;-51
2024/03/19 05:14:04;;;;;;;10.63;6.35;;;;;;;5.50;58.90;100565.88;5132071;27;20161;-51
2024/03/19 05:16:33;;;;;;;12.40;5.68;;;;;;;5.58;59.90;100564.69;5132242;27;20624;-50
2024/03/19 05:19:00;;;;;;;13.15;6.20;;;;;;;5.63;59.51;100564.53;5132412;27;20043;-50
2024/03/19 05:21:28;;;;;;;11.73;6.78;;;;;;;5.27;59.05;100569.31;5132242;27;20693;-50
2024/03/19 05:23:55;;;;;;;10.93;6.65;;;;;;;4.97;60.17;100568.53;5132163;27;20099;-47
2024/03/19 05:26:23;;;;;;;11.48;6.80;;;;;;;4.77;60.21;100570.03;5132234;27;20054;-50
2024/03/19 05:28:50;;;;;;;10.75;6.72;;;;;;;4.87;60.28;100570.59;5132296;27;20403;-48
2024/03/19 05:31:22;;;;;;;13.40;6.97;;;;;;;4.98;59.70;100572.91;5132268;27;20051;-48
2024/03/19 05:33:52;;;;;;;12.57;7.22;;;;;;;5.04;59.88;100578.88;5132072;27;20043;-47
2024/03/19 05:36:20;;;;;;;12.05;6.70;;;;;;;5.00;59.68;100577.22;5131465;27;20103;-49
2024/03/19 05:38:48;;;;;;;12.63;6.93;;;;;;;5.12;59.64;100583.91;5131948;27;20043;-49
2024/03/19 05:41:16;;;;;;;14.73;7.15;;;;;;;5.13;59.60;100586.50;5131828;27;20039;-50
2024/03/19 05:43:44;;;;;;;12.95;6.85;;;;;;;4.93;59.54;100586.28;5131972;27;20125;-48
2024/03/19 05:46:11;;;;;;;12.23;6.68;;;;;;;5.05;59.66;100590.31;5130822;27;20058;-49
2024/03/19 05:48:39;;;;;;;14.30;6.95;;;;;;;5.08;59.68;100591.06;5128481;27;20152;-48
2024/03/19 05:51:09;;;;;;;11.75;6.60;;;;;;;5.26;59.44;100591.38;5130766;27;20054;-47
2024/03/19 05:53:37;;;;;;;14.18;7.13;;;;;;;5.39;59.19;100596.19;5129931;27;20043;-48
2024/03/19 05:56:05;;;;;;;13.35;6.97;;;;;;;5.39;59.87;100595.34;5130725;27;20442;-49
2024/03/19 05:58:33;;;;;;;12.27;6.78;;;;;;;5.44;58.65;100593.41;5130202;27;20047;-48
2024/03/19 06:01:01;;;;;;;12.65;6.57;;;;;;;5.40;58.72;100600.59;5130044;27;20055;-50
2024/03/19 06:03:28;;;;;;;11.45;6.50;;;;;;;5.59;58.14;100598.16;5129950;27;20039;-48
2024/03/19 06:05:58;;;;;;;12.07;6.95;;;;;;;5.60;58.11;100599.94;5130489;27;20504;-49
2024/03/19 06:08:28;;;;;;;14.63;6.70;;;;;;;5.54;58.00;100605.41;5122257;27;20517;-51
2024/03/19 06:10:56;;;;;;;12.30;6.75;;;;;;;5.53;58.02;100606.34;5130946;27;20115;-48
2024/03/19 06:13:23;;;;;;;13.50;6.93;;;;;;;5.32;58.73;100601.78;5129167;27;20058;-49
2024/03/19 06:15:51;;;;;;;13.70;7.15;;;;;;;5.60;58.73;100607.00;5130339;27;20495;-48
2024/03/19 06:18:19;;;;;;;16.27;7.63;;;;;;;5.62;57.98;100615.75;5131016;27;20100;-48
2024/03/19 06:20:47;;;;;;;17.38;8.27;;;;;;;5.27;58.32;100617.78;5130242;27;20130;-50
2024/03/19 06:23:15;;;;;;;14.32;8.15;;;;;;;5.37;58.46;100613.03;5128768;27;20082;-48
2024/03/19 06:25:44;;;;;;;14.95;8.18;;;;;;;5.45;58.58;100621.59;5130740;27;20197;-48
2024/03/19 06:28:12;;;;;;;16.48;7.78;;;;;;;5.56;59.11;100616.81;5130355;27;20070;-51
2024/03/19 06:30:39;;;;;;;13.98;7.50;;;;;;;5.69;58.13;100619.91;5130407;27;20081;-50
2024/03/19 06:33:07;;;;;;;14.45;7.43;;;;;;;5.79;58.50;100631.03;5128710;27;20411;-50
2024/03/19 06:35:35;;;;;;;13.15;7.20;;;;;;;5.57;57.09;100631.75;5129875;27;20039;-49
2024/03/19 06:38:03;;;;;;;15.38;7.40;;;;;;;5.65;57.67;100631.50;5130339;27;20051;-48
2024/03/19 06:40:31;;;;;;;13.77;7.57;;;;;;;5.71;57.83;100634.81;5129718;27;20106;-50
2024/03/19 06:43:00;;;;;;;16.33;7.65;;;;;;;5.72;57.76;100636.56;5128686;27;20043;-47
2024/03/19 06:45:30;;;;;;;14.82;7.97;;;;;;;5.81;57.34;100642.47;5129778;27;20388;-47
2024/03/19 06:47:58;;;;;;;14.98;7.63;;;;;;;5.66;57.07;100636.75;5120565;27;20043;-48
2024/03/19 06:50:26;;;;;;;14.68;8.18;;;;;;;5.62;57.34;100640.44;5129742;27;20096;-47
2024/03/19 06:52:55;;;;;;;25.50;11.73;;;;;;;5.49;57.91;100636.44;5128473;27;20039;-47
2024/03/19 06:55:22;;;;;;;25.75;11.63;;;;;;;5.69;57.86;100647.25;5129607;27;20043;-47
2024/03/19 06:57:51;;;;;;;19.98;10.48;;;;;;;5.89;58.65;100649.22;5129860;27;20054;-49
2024/03/19 07:00:20;;;;;;;15.95;9.18;;;;;;;5.52;58.11;100654.88;5129339;28;20058;-46
2024/03/19 07:02:49;;;;;;;14.98;8.10;;;;;;;5.55;58.24;100660.06;5128148;28;20039;-49
2024/03/19 07:05:16;;;;;;;15.80;8.60;;;;;;;5.66;58.11;100657.91;5129402;28;20480;-49
2024/03/19 07:07:44;;;;;;;15.15;8.35;;;;;;;6.02;58.07;100658.50;5129695;27;20051;-48
2024/03/19 07:10:12;;;;;;;13.48;7.63;;;;;;;6.16;57.55;100660.63;5129704;28;20517;-47
2024/03/19 07:12:40;;;;;;;14.93;7.55;;;;;;;6.16;57.84;100660.63;5128112;28;20063;-48
2024/03/19 07:15:14;;;;;;;17.77;9.15;;;;;;;6.06;57.18;100666.31;5129016;28;20058;-46
2024/03/19 07:17:49;;;;;;;15.48;8.75;;;;;;;6.21;57.88;100669.31;5129186;28;20455;-50
2024/03/19 07:20:18;;;;;;;15.85;8.00;;;;;;;6.42;57.97;100674.75;5121864;27;20044;-47
2024/03/19 07:22:47;;;;;;;15.57;8.02;;;;;;;6.55;57.35;100676.00;5128371;27;20043;-48
2024/03/19 07:25:14;;;;;;;13.52;7.30;;;;;;;6.61;57.08;100681.09;5129524;28;20047;-49
2024/03/19 07:27:43;;;;;;;14.30;7.80;;;;;;;6.66;56.82;100684.47;5129292;27;20139;-50
2024/03/19 07:30:11;;;;;;;14.02;7.30;;;;;;;6.70;56.08;100680.75;5129062;27;20039;-49
2024/03/19 07:32:39;;;;;;;13.57;7.75;;;;;;;6.77;56.48;100681.41;5128038;28;20062;-48
2024/03/19 07:35:09;;;;;;;15.80;7.75;;;;;;;6.73;55.85;100680.63;5129173;28;20061;-48
2024/03/19 07:37:37;;;;;;;12.30;7.35;;;;;;;6.78;56.09;100684.00;5129008;27;20055;-47
2024/03/19 07:40:09;;;;;;;14.82;8.60;;;;;;;6.64;55.91;100686.28;5129435;28;20091;-49
2024/03/19 07:42:37;;;;;;;15.43;7.93;;;;;;;6.46;56.41;100686.94;5128519;28;20812;-47
2024/03/19 07:45:05;;;;;;;17.73;8.57;;;;;;;6.45;56.43;100695.81;5128816;28;20053;-49
2024/03/19 07:47:33;;;;;;;16.83;8.65;;;;;;;6.55;55.55;100697.22;5129225;28;20495;-46
2024/03/19 07:50:00;;;;;;;15.98;8.65;;;;;;;6.58;55.20;100697.13;5129474;28;20632;-48
2024/03/19 07:52:29;;;;;;;15.02;7.88;;;;;;;6.51;55.25;100692.97;5128339;28;20047;-50
2024/03/19 07:54:56;;;;;;;13.27;7.03;;;;;;;6.50;54.96;100699.19;5128736;27;20047;-49
2024/03/19 07:57:24;;;;;;;11.93;6.85;;;;;;;6.16;55.00;100696.84;5128335;28;20133;-46
2024/03/19 07:59:52;;;;;;;10.30;6.50;;;;;;;6.08;55.32;100698.91;5131337;27;20068;-49
2024/03/19 08:02:20;;;;;;;14.43;7.50;;;;;;;5.95;55.77;100701.97;5114448;27;20092;-48
2024/03/19 08:04:49;;;;;;;14.85;6.93;;;;;;;5.92;55.43;100701.22;5131554;27;20051;-48
2024/03/19 08:07:16;;;;;;;13.90;7.07;;;;;;;6.30;55.66;100708.72;5132724;27;20477;-48
2024/03/19 08:09:45;;;;;;;14.77;7.75;;;;;;;6.44;55.49;100707.34;5132388;27;20176;-46
2024/03/19 08:12:14;;;;;;;13.57;7.45;;;;;;;6.38;54.22;100708.44;5132163;27;20071;-48
2024/03/19 08:14:41;;;;;;;13.18;7.13;;;;;;;6.18;55.05;100717.09;5131973;27;20055;-48
2024/03/19 08:17:08;;;;;;;11.68;7.07;;;;;;;6.54;55.31;100714.91;5132300;27;20082;-48
2024/03/19 08:19:36;;;;;;;14.32;7.38;;;;;;;6.64;54.75;100718.09;5132654;27;20511;-48
2024/03/19 08:22:05;;;;;;;14.02;7.60;;;;;;;6.97;54.03;100712.47;5133603;27;20048;-46
2024/03/19 08:24:32;;;;;;;12.70;7.05;;;;;;;6.67;53.29;100722.44;5131141;27;20158;-48
2024/03/19 08:27:01;;;;;;;12.68;7.03;;;;;;;7.03;53.80;100720.19;5132944;27;20142;-50
2024/03/19 08:29:28;;;;;;;12.98;7.35;;;;;;;7.28;52.62;100713.00;5133325;27;20130;-49
2024/03/19 08:31:55;;;;;;;15.95;7.20;;;;;;;7.34;52.57;100715.44;5133213;27;20167;-46
2024/03/19 08:34:23;;;;;;;15.30;7.78;;;;;;;7.40;52.74;100719.63;5133351;27;20051;-50
2024/03/19 08:36:50;;;;;;;15.85;7.65;;;;;;;7.42;52.29;100715.97;5131849;27;20039;-48
2024/03/19 08:39:18;;;;;;;13.18;7.25;;;;;;;7.19;51.84;100716.00;5133041;27;20039;-48
2024/03/19 08:41:45;;;;;;;12.02;6.55;;;;;;;6.95;52.08;100723.13;5133281;27;20055;-47
2024/03/19 08:44:14;;;;;;;12.88;7.07;;;;;;;7.09;52.09;100714.66;5132231;27;20552;-48
2024/03/19 08:46:42;;;;;;;14.20;7.38;;;;;;;7.45;52.29;100723.81;5130982;27;20511;-47
2024/03/19 08:49:10;;;;;;;15.45;7.30;;;;;;;7.79;52.76;100711.81;5131634;27;20051;-49
2024/03/19 08:51:38;;;;;;;8.15;4.25;;;;;;;7.14;46.05;100725.94;5132155;27;20066;-48
2024/03/19 08:54:05;;;;;;;8.75;4.38;;;;;;;7.40;45.46;100723.13;5132418;27;20050;-48
2024/03/19 08:56:34;;;;;;;7.50;4.55;;;;;;;7.28;44.77;100736.03;5132328;27;20050;-48
2024/03/19 08:59:02;;;;;;;8.70;5.05;;;;;;;7.23;45.56;100727.38;5131851;27;20134;-50
2024/03/19 09:01:31;;;;;;;9.13;4.22;;;;;;;7.33;45.73;100724.28;5132596;27;20671;-49
2024/03/19 09:03:59;;;;;;;10.18;4.50;;;;;;;7.49;45.80;100731.66;5132567;27;20043;-47
2024/03/19 09:06:26;;;;;;;9.57;4.90;;;;;;;7.39;45.56;100731.16;5132994;27;20119;-48
2024/03/19 09:08:53;;;;;;;9.73;4.85;;;;;;;7.59;45.24;100725.06;5134437;27;20059;-53
2024/03/19 09:11:21;;;;;;;11.52;4.57;;;;;;;7.73;45.57;100728.03;5133112;27;20050;-50
2024/03/19 09:13:48;;;;;;;6.60;4.05;;;;;;;7.52;44.01;100731.53;5133866;27;20484;-50
2024/03/19 09:16:15;;;;;;;8.25;4.45;;;;;;;7.91;44.28;100729.94;5133217;27;20146;-50
2024/03/19 09:18:44;;;;;;;11.60;4.47;;;;;;;7.96;44.18;100725.28;5133110;27;20087;-52
2024/03/19 09:21:12;;;;;;;9.95;4.65;;;;;;;8.10;43.41;100726.47;5132812;27;20050;-49
2024/03/19 09:23:39;;;;;;;8.52;4.20;;;;;;;7.71;42.42;100737.81;5132465;27;20043;-51
2024/03/19 09:26:06;;;;;;;11.98;4.05;;;;;;;7.65;42.68;100731.00;5132180;27;20043;-49
2024/03/19 09:28:34;;;;;;;6.70;3.72;;;;;;;7.92;41.95;100723.69;5132135;27;20069;-49
2024/03/19 09:31:02;;;;;;;7.97;4.30;;;;;;;7.96;42.01;100729.72;5132099;27;20424;-48
2024/03/19 09:33:29;;;;;;;6.85;3.85;;;;;;;7.84;42.15;100724.94;5131985;27;20050;-52
2024/03/19 09:35:58;;;;;;;7.18;3.97;;;;;;;7.98;42.23;100739.34;5132335;27;20121;-49
2024/03/19 09:38:25;;;;;;;6.75;4.45;;;;;;;7.89;42.65;100734.41;5132126;27;20043;-48
2024/03/19 09:40:55;;;;;;;6.78;4.25;;;;;;;7.81;42.15;100741.84;5132176;27;20050;-49
2024/03/19 09:43:24;;;;;;;8.27;4.63;;;;;;;7.89;42.08;100737.06;5131908;27;20519;-48
2024/03/19 09:45:52;;;;;;;10.32;4.55;;;;;;;8.14;41.97;100738.72;5131845;27;20082;-51
2024/03/19 09:48:20;;;;;;;6.80;4.03;;;;;;;7.99;42.03;100735.75;5132087;27;20043;-50
2024/03/19 09:50:48;;;;;;;6.78;4.10;;;;;;;8.01;42.44;100735.72;5131733;27;20515;-49
2024/03/19 09:53:19;;;;;;;8.55;4.30;;;;;;;8.49;42.38;100742.53;5132154;27;20445;-47
2024/03/19 09:55:48;;;;;;;9.52;4.18;;;;;;;8.43;42.24;100738.38;5131799;27;20387;-51
2024/03/19 09:58:16;;;;;;;9.23;4.50;;;;;;;8.44;42.07;100740.09;5131804;27;20043;-49
2024/03/19 10:00:45;;;;;;;8.45;4.70;;;;;;;7.66;43.10;100742.47;5131776;27;20047;-48
2024/03/19 10:03:13;;;;;;;8.20;4.53;;;;;;;7.81;43.12;100735.66;5131649;27;20462;-49
2024/03/19 10:05:41;;;;;;;7.82;4.32;;;;;;;8.25;42.75;100739.13;5131552;27;20046;-47
2024/03/19 10:08:13;;;;;;;7.45;4.82;;;;;;;8.67;42.34;100746.19;5131708;27;20077;-51
2024/03/19 10:10:46;;;;;;;9.75;4.75;;;;;;;8.94;42.02;100744.94;5131207;27;20377;-49
2024/03/19 10:13:14;;;;;;;7.22;4.35;;;;;;;8.95;41.04;100743.13;5131105;27;20043;-49
2024/03/19 10:15:41;;;;;;;7.55;4.50;;;;;;;8.80;40.60;100742.06;5131298;27;20408;-49
2024/03/19 10:18:09;;;;;;;7.60;4.07;;;;;;;8.62;40.83;100745.53;5131108;27;20069;-48
2024/03/19 10:20:38;;;;;;;7.15;3.60;;;;;;;8.21;40.15;100750.81;5131065;27;20384;-47
2024/03/19 10:23:07;;;;;;;8.02;3.92;;;;;;;8.06;40.54;100754.13;5130725;27;20043;-47
2024/03/19 10:25:36;;;;;;;9.18;4.05;;;;;;;7.92;40.97;100758.22;5130961;27;20461;-48
2024/03/19 10:28:09;;;;;;;6.03;3.92;;;;;;;8.44;40.79;100742.75;5131128;27;20046;-49
2024/03/19 10:30:36;;;;;;;6.82;4.15;;;;;;;8.94;40.65;100750.25;5130988;27;20065;-49
2024/03/19 10:33:08;;;;;;;9.80;4.50;;;;;;;8.96;40.26;100735.09;5131280;27;20058;-50
2024/03/19 10:35:36;;;;;;;7.75;4.53;;;;;;;9.14;39.72;100738.69;5130904;27;20126;-46
2024/03/19 10:38:05;;;;;;;7.45;4.20;;;;;;;9.32;40.02;100734.31;5130704;27;20082;-49
2024/03/19 10:40:34;;;;;;;6.53;3.85;;;;;;;8.85;38.93;100737.38;5131102;27;20488;-47
2024/03/19 10:43:01;;;;;;;7.13;3.75;;;;;;;9.28;39.43;100733.59;5131197;27;20122;-51
2024/03/19 10:45:32;;;;;;;6.53;3.80;;;;;;;9.72;39.22;100731.44;5130711;27;20075;-49
2024/03/19 10:47:59;;;;;;;5.70;3.33;;;;;;;9.97;39.30;100733.78;5122829;27;20055;-46
2024/03/19 10:50:30;;;;;;;6.30;3.90;;;;;;;9.74;38.38;100737.56;5128121;27;20567;-48
2024/03/19 10:53:04;;;;;;;6.68;3.55;;;;;;;9.21;38.46;100736.63;5130644;27;20062;-50
2024/03/19 10:55:33;;;;;;;5.82;3.33;;;;;;;9.15;38.90;100735.09;5130588;27;20075;-47
2024/03/19 10:58:01;;;;;;;6.75;4.05;;;;;;;9.60;39.02;100734.72;5143976;27;20089;-49
2024/03/19 11:00:30;;;;;;;9.15;4.93;;;;;;;9.51;38.10;100736.97;5151517;27;20512;-45
2024/03/19 11:02:59;;;;;;;8.27;4.00;;;;;;;8.89;38.94;100741.66;5151095;27;20060;-48
2024/03/19 11:05:27;;;;;;;7.60;4.30;;;;;;;8.72;38.97;100737.06;5150066;27;20115;-48
2024/03/19 11:07:57;;;;;;;9.85;4.00;;;;;;;9.15;39.25;100732.44;5138921;27;20047;-48
2024/03/19 11:10:28;;;;;;;9.93;4.65;;;;;;;9.69;39.22;100728.94;5136142;27;20449;-48
2024/03/19 11:12:59;;;;;;;10.48;4.60;;;;;;;9.92;39.51;100726.94;5139337;27;20039;-46
2024/03/19 11:15:32;;;;;;;7.95;4.07;;;;;;;10.17;39.91;100727.44;5130167;28;20097;-48
2024/03/19 11:18:05;;;;;;;16.67;4.75;;;;;;;10.23;39.04;100726.28;5140831;27;20049;-47
2024/03/19 11:20:34;;;;;;;12.68;4.65;;;;;;;10.53;39.36;100735.41;5136068;27;20492;-48
2024/03/19 11:23:04;;;;;;;6.40;3.65;;;;;;;10.11;37.56;100737.53;5141294;27;20043;-48
2024/03/19 11:25:32;;;;;;;6.60;3.97;;;;;;;9.16;38.20;100743.00;5130555;27;20099;-46
2024/03/19 11:27:59;;;;;;;7.60;4.07;;;;;;;8.88;39.18;100747.91;5130143;28;20405;-48
2024/03/19 11:30:26;;;;;;;10.45;4.32;;;;;;;8.91;38.85;100746.88;5129771;28;20449;-48
2024/03/19 11:32:58;;;;;;;9.02;4.30;;;;;;;8.72;39.72;100741.53;5130175;27;20517;-47